Time;durP1;ratioP1;P1;durP2;ratioP2;P2;SDS_P1;SDS_P2;PMS_P1;PMS_P2;Temp;Humidity;BMP_temperature;BMP_pressure;BME280_temperature;BME280_humidity;BME280_pressure;Samples;Min_cycle;Max_cycle;Signal;HPM_P1;HPM_P2
2022/04/09 00:00:41;;;;;;;1.17;0.50;;;17.50;48.70;;;;;;5065103;28;47430;-21
2022/04/09 00:03:07;;;;;;;0.88;0.60;;;17.50;48.60;;;;;;5065386;28;46998;-20
2022/04/09 00:05:34;;;;;;;0.50;0.50;;;17.50;48.70;;;;;;5065499;28;47292;-15
2022/04/09 00:08:01;;;;;;;0.57;0.57;;;17.40;48.60;;;;;;5064750;28;47032;-15
2022/04/09 00:10:27;;;;;;;0.38;0.38;;;17.40;48.70;;;;;;5065266;28;47244;-16
2022/04/09 00:12:54;;;;;;;0.98;0.50;;;17.40;48.70;;;;;;5065203;28;46816;-17
2022/04/09 00:15:22;;;;;;;1.00;0.50;;;17.30;48.60;;;;;;5065379;28;47279;-21
2022/04/09 00:17:49;;;;;;;0.50;0.50;;;17.30;48.70;;;;;;5065017;28;47443;-20
2022/04/09 00:20:17;;;;;;;0.45;0.40;;;17.30;48.60;;;;;;5065373;28;47351;-21
2022/04/09 00:22:44;;;;;;;0.45;0.45;;;17.30;48.60;;;;;;5065060;28;46902;-15
2022/04/09 00:25:11;;;;;;;1.27;0.38;;;17.30;48.50;;;;;;5065438;28;46834;-15
2022/04/09 00:27:38;;;;;;;0.50;0.50;;;17.20;48.40;;;;;;5064816;28;48029;-16
2022/04/09 00:30:06;;;;;;;0.50;0.50;;;17.20;48.50;;;;;;5065051;28;47166;-20
2022/04/09 00:32:34;;;;;;;0.52;0.52;;;17.20;48.60;;;;;;5065036;28;46822;-16
2022/04/09 00:35:01;;;;;;;0.50;0.50;;;17.10;48.40;;;;;;5064985;28;47012;-17
2022/04/09 00:37:29;;;;;;;0.40;0.40;;;17.10;48.40;;;;;;5064473;28;47081;-13
2022/04/09 00:39:56;;;;;;;0.73;0.35;;;17.10;48.40;;;;;;5064662;28;46863;-18
2022/04/09 00:42:22;;;;;;;0.50;0.50;;;17.00;48.40;;;;;;5064942;28;46903;-18
2022/04/09 00:44:50;;;;;;;0.40;0.40;;;17.00;48.40;;;;;;5065134;28;47304;-19
2022/04/09 00:47:17;;;;;;;0.30;0.30;;;17.00;48.40;;;;;;5064716;28;46914;-13
2022/04/09 00:49:45;;;;;;;0.40;0.30;;;16.90;48.30;;;;;;5064686;28;46903;-18
2022/04/09 00:52:12;;;;;;;0.40;0.40;;;16.90;48.40;;;;;;5064839;28;46907;-13
2022/04/09 00:54:39;;;;;;;0.43;0.43;;;16.90;48.30;;;;;;5064711;28;46800;-17
2022/04/09 00:57:07;;;;;;;0.43;0.43;;;16.90;48.40;;;;;;5064100;28;46904;-12
2022/04/09 00:59:36;;;;;;;0.60;0.47;;;16.90;48.30;;;;;;5064279;28;47137;-13
2022/04/09 01:02:03;;;;;;;0.47;0.47;;;16.90;48.40;;;;;;5066052;28;46971;-18
2022/04/09 01:04:29;;;;;;;0.30;0.30;;;16.80;48.30;;;;;;5068350;28;46941;-17
2022/04/09 01:06:57;;;;;;;0.35;0.35;;;16.80;48.30;;;;;;5067774;28;48133;-13
2022/04/09 01:09:24;;;;;;;0.40;0.40;;;16.80;48.30;;;;;;5067982;28;47440;-18
2022/04/09 01:11:51;;;;;;;0.30;0.30;;;16.80;48.40;;;;;;5067530;28;46919;-18
2022/04/09 01:14:18;;;;;;;0.30;0.30;;;16.80;48.30;;;;;;5067807;28;46859;-13
2022/04/09 01:16:44;;;;;;;0.25;0.25;;;16.70;48.20;;;;;;5067656;28;46966;-18
2022/04/09 01:19:11;;;;;;;0.30;0.30;;;16.70;48.20;;;;;;5067839;28;46814;-18
2022/04/09 01:21:38;;;;;;;0.30;0.30;;;16.70;48.20;;;;;;5067727;28;46935;-13
2022/04/09 01:24:07;;;;;;;0.65;0.32;;;16.60;48.20;;;;;;5067854;28;47033;-18
2022/04/09 01:26:33;;;;;;;0.30;0.30;;;16.60;48.30;;;;;;5067587;28;48876;-18
2022/04/09 01:29:00;;;;;;;0.30;0.30;;;16.60;48.30;;;;;;5067678;28;46836;-18
2022/04/09 01:31:27;;;;;;;0.30;0.30;;;16.60;48.30;;;;;;5067635;28;46844;-18
2022/04/09 01:33:53;;;;;;;0.22;0.22;;;16.60;48.30;;;;;;5067511;28;46900;-17
2022/04/09 01:36:20;;;;;;;0.40;0.40;;;16.60;48.30;;;;;;5067283;28;48821;-13
2022/04/09 01:38:47;;;;;;;0.20;0.20;;;16.60;48.20;;;;;;5067311;28;46865;-13
2022/04/09 01:41:15;;;;;;;0.30;0.30;;;16.60;48.10;;;;;;5067248;28;46974;-18
2022/04/09 01:43:41;;;;;;;0.35;0.35;;;16.60;48.20;;;;;;5067810;28;46867;-13
2022/04/09 01:46:08;;;;;;;0.45;0.45;;;16.50;48.10;;;;;;5067472;28;49074;-18
2022/04/09 01:48:35;;;;;;;0.30;0.30;;;16.50;48.10;;;;;;5067329;28;47113;-18
2022/04/09 01:51:01;;;;;;;0.73;0.40;;;16.50;48.10;;;;;;5067198;28;46903;-17
2022/04/09 01:53:28;;;;;;;0.32;0.32;;;16.50;48.10;;;;;;5067066;28;47283;-12
2022/04/09 01:55:55;;;;;;;0.30;0.30;;;16.50;48.10;;;;;;5067191;28;47963;-18
2022/04/09 01:58:23;;;;;;;0.30;0.30;;;16.40;48.10;;;;;;5067168;28;46861;-13
2022/04/09 02:00:51;;;;;;;0.28;0.28;;;16.40;48.10;;;;;;5067410;28;46749;-13
2022/04/09 02:03:18;;;;;;;0.10;0.10;;;16.40;48.10;;;;;;5067161;28;46790;-18
2022/04/09 02:05:46;;;;;;;0.28;0.28;;;16.40;48.10;;;;;;5067185;28;47068;-13
2022/04/09 02:08:13;;;;;;;0.20;0.20;;;16.40;48.10;;;;;;5066781;28;46885;-18
2022/04/09 02:10:40;;;;;;;0.25;0.25;;;16.40;48.10;;;;;;5067196;28;46886;-13
2022/04/09 02:13:12;;;;;;;0.30;0.30;;;16.40;48.10;;;;;;5066679;28;47246;-13
2022/04/09 02:15:40;;;;;;;0.20;0.20;;;16.40;48.10;;;;;;5066726;28;48112;-18
2022/04/09 02:18:07;;;;;;;0.22;0.22;;;16.40;48.10;;;;;;5067049;28;47063;-13
2022/04/09 02:20:33;;;;;;;0.30;0.30;;;16.30;48.00;;;;;;5066995;28;46894;-13
2022/04/09 02:23:00;;;;;;;0.28;0.25;;;16.30;48.00;;;;;;5067140;28;46939;-13
2022/04/09 02:25:27;;;;;;;0.20;0.20;;;16.30;48.00;;;;;;5066533;28;47947;-18
2022/04/09 02:27:53;;;;;;;0.10;0.10;;;16.30;48.00;;;;;;5066774;28;46935;-13
2022/04/09 02:30:20;;;;;;;0.20;0.20;;;16.30;48.00;;;;;;5066572;28;46915;-14
2022/04/09 02:32:49;;;;;;;0.10;0.10;;;16.30;48.10;;;;;;5066877;28;47155;-14
2022/04/09 02:35:16;;;;;;;0.35;0.35;;;16.30;48.00;;;;;;5066515;28;48289;-18
2022/04/09 02:37:43;;;;;;;0.30;0.20;;;16.30;48.10;;;;;;5066287;28;46911;-18
2022/04/09 02:40:10;;;;;;;0.10;0.10;;;16.20;48.10;;;;;;5066445;28;46871;-17
2022/04/09 02:42:37;;;;;;;0.15;0.10;;;16.20;48.10;;;;;;5066669;28;46821;-12
2022/04/09 02:45:05;;;;;;;0.22;0.10;;;16.20;48.10;;;;;;5066287;28;48413;-14
2022/04/09 02:47:32;;;;;;;0.10;0.10;;;16.20;48.10;;;;;;5066209;28;47574;-18
2022/04/09 02:50:00;;;;;;;0.22;0.22;;;16.20;48.00;;;;;;5066331;28;46898;-18
2022/04/09 02:52:28;;;;;;;0.30;0.30;;;16.20;48.10;;;;;;5066656;28;47218;-13
2022/04/09 02:54:54;;;;;;;0.30;0.20;;;16.20;48.00;;;;;;5066138;28;48170;-18
2022/04/09 02:57:21;;;;;;;0.10;0.10;;;16.20;48.70;;;;;;5065997;28;47215;-18
2022/04/09 02:59:48;;;;;;;0.28;0.28;;;16.10;48.10;;;;;;5066127;28;46932;-17
2022/04/09 03:02:15;;;;;;;0.28;0.28;;;16.20;48.10;;;;;;5065977;28;47303;-13
2022/04/09 03:04:45;;;;;;;0.20;0.20;;;16.10;48.00;;;;;;5066244;28;47823;-14
2022/04/09 03:07:13;;;;;;;0.20;0.20;;;16.10;48.00;;;;;;5065956;28;47480;-13
2022/04/09 03:09:39;;;;;;;0.30;0.30;;;16.10;48.00;;;;;;5066247;28;47045;-18
2022/04/09 03:12:07;;;;;;;0.30;0.30;;;16.10;48.10;;;;;;5066126;28;47117;-18
2022/04/09 03:14:33;;;;;;;0.28;0.28;;;16.10;48.10;;;;;;5065995;28;49130;-13
2022/04/09 03:17:00;;;;;;;0.10;0.10;;;16.10;47.90;;;;;;5065820;28;47088;-13
2022/04/09 03:19:27;;;;;;;0.20;0.20;;;16.10;48.00;;;;;;5066422;28;46964;-18
2022/04/09 03:21:53;;;;;;;0.80;0.20;;;16.10;48.70;;;;;;5065986;28;47302;-18
2022/04/09 03:24:22;;;;;;;0.10;0.10;;;16.10;48.10;;;;;;5065516;28;48134;-18
2022/04/09 03:26:48;;;;;;;0.20;0.20;;;16.10;48.00;;;;;;5064465;28;46884;-19
2022/04/09 03:29:15;;;;;;;0.20;0.20;;;16.10;48.00;;;;;;5065931;28;46872;-14
2022/04/09 03:31:42;;;;;;;0.20;0.20;;;16.10;47.90;;;;;;5065706;28;47328;-13
2022/04/09 03:34:08;;;;;;;0.20;0.20;;;16.00;47.90;;;;;;5065486;28;46924;-18
2022/04/09 03:36:35;;;;;;;0.10;0.10;;;16.00;48.00;;;;;;5065470;28;47081;-13
2022/04/09 03:39:02;;;;;;;0.20;0.20;;;16.00;47.90;;;;;;5065522;28;46836;-18
2022/04/09 03:41:30;;;;;;;0.20;0.20;;;16.00;48.00;;;;;;5065460;28;46851;-18
2022/04/09 03:43:57;;;;;;;0.20;0.20;;;16.00;47.90;;;;;;5065312;28;47818;-18
2022/04/09 03:46:23;;;;;;;0.30;0.30;;;16.00;48.00;;;;;;5065546;28;46937;-13
2022/04/09 03:48:50;;;;;;;0.20;0.20;;;16.00;48.00;;;;;;5065395;28;46848;-14
2022/04/09 03:51:17;;;;;;;0.20;0.20;;;15.90;47.90;;;;;;5065408;28;46911;-18
2022/04/09 03:53:43;;;;;;;0.30;0.30;;;15.90;48.00;;;;;;5065205;28;47799;-18
2022/04/09 03:56:10;;;;;;;0.20;0.20;;;15.90;47.90;;;;;;5065122;28;47285;-18
2022/04/09 03:58:38;;;;;;;0.20;0.20;;;15.90;48.00;;;;;;5065543;28;46891;-18
2022/04/09 04:01:05;;;;;;;0.10;0.10;;;15.90;47.90;;;;;;5065519;28;46879;-18
2022/04/09 04:03:34;;;;;;;0.28;0.20;;;15.90;48.00;;;;;;5065583;28;47944;-18
2022/04/09 04:06:01;;;;;;;0.20;0.20;;;15.90;48.60;;;;;;5065101;28;46983;-18
2022/04/09 04:08:28;;;;;;;0.20;0.20;;;15.90;48.00;;;;;;5065248;28;46891;-18
2022/04/09 04:10:55;;;;;;;0.30;0.30;;;15.90;47.90;;;;;;5065590;28;47288;-18
2022/04/09 04:13:21;;;;;;;0.30;0.30;;;15.90;47.90;;;;;;5064717;28;48015;-18
2022/04/09 04:15:50;;;;;;;0.30;0.30;;;15.90;47.90;;;;;;5064858;28;46879;-15
2022/04/09 04:18:17;;;;;;;0.28;0.28;;;15.90;47.90;;;;;;5065017;28;46895;-13
2022/04/09 04:20:44;;;;;;;0.30;0.30;;;15.90;47.90;;;;;;5065508;28;46838;-18
2022/04/09 04:23:10;;;;;;;0.25;0.25;;;15.90;47.90;;;;;;5064566;28;49116;-13
2022/04/09 04:25:37;;;;;;;0.20;0.20;;;15.80;47.90;;;;;;5065056;28;47221;-13
2022/04/09 04:28:04;;;;;;;0.20;0.20;;;15.80;47.90;;;;;;5064836;28;46947;-18
2022/04/09 04:30:31;;;;;;;0.30;0.30;;;15.80;47.90;;;;;;5065047;28;46860;-14
2022/04/09 04:32:59;;;;;;;0.10;0.10;;;15.80;47.90;;;;;;5064730;28;47079;-19
2022/04/09 04:35:26;;;;;;;0.17;0.17;;;15.80;48.00;;;;;;5064850;28;46832;-14
2022/04/09 04:37:54;;;;;;;0.20;0.20;;;15.80;47.90;;;;;;5067595;28;46891;-13
2022/04/09 04:40:20;;;;;;;0.30;0.20;;;15.80;47.90;;;;;;5068496;28;46979;-17
2022/04/09 04:42:49;;;;;;;0.15;0.15;;;15.80;48.00;;;;;;5068296;28;48818;-14
2022/04/09 04:45:15;;;;;;;0.20;0.20;;;15.70;47.90;;;;;;5068183;28;46934;-13
2022/04/09 04:47:46;;;;;;;0.85;0.30;;;15.70;47.90;;;;;;5068127;28;47026;-18
2022/04/09 04:50:14;;;;;;;0.10;0.10;;;15.70;47.90;;;;;;5068405;28;47088;-18
2022/04/09 04:52:40;;;;;;;0.05;0.05;;;15.70;47.90;;;;;;5068086;28;46917;-18
2022/04/09 04:55:08;;;;;;;0.20;0.20;;;15.70;47.90;;;;;;5067911;28;46920;-19
2022/04/09 04:57:41;;;;;;;0.10;0.10;;;15.70;47.90;;;;;;5068053;28;46812;-13
2022/04/09 05:00:09;;;;;;;0.20;0.20;;;15.70;47.90;;;;;;5068366;28;46899;-18
2022/04/09 05:02:36;;;;;;;0.10;0.10;;;15.70;48.00;;;;;;5067730;28;49009;-18
2022/04/09 05:05:03;;;;;;;0.10;0.10;;;15.70;48.00;;;;;;5067892;28;47010;-18
2022/04/09 05:07:39;;;;;;;0.25;0.25;;;15.70;48.00;;;;;;5067969;28;46888;-13
2022/04/09 05:10:06;;;;;;;0.10;0.10;;;15.60;47.90;;;;;;5068388;28;46926;-18
2022/04/09 05:12:33;;;;;;;0.20;0.20;;;15.70;47.90;;;;;;5067552;28;47074;-14
2022/04/09 05:15:00;;;;;;;0.20;0.20;;;15.60;47.90;;;;;;5067737;28;46861;-18
2022/04/09 05:17:27;;;;;;;0.20;0.20;;;15.60;47.90;;;;;;5068031;28;46939;-18
2022/04/09 05:19:53;;;;;;;0.20;0.20;;;15.60;47.90;;;;;;5068154;28;47181;-18
2022/04/09 05:22:20;;;;;;;0.30;0.30;;;15.60;47.90;;;;;;5067721;28;48122;-13
2022/04/09 05:24:49;;;;;;;0.17;0.17;;;15.60;47.80;;;;;;5067511;28;46902;-14
2022/04/09 05:27:16;;;;;;;0.13;0.13;;;15.60;47.80;;;;;;5067321;28;46938;-18
2022/04/09 05:29:42;;;;;;;0.30;0.30;;;15.60;47.90;;;;;;5068139;28;46934;-13
2022/04/09 05:32:09;;;;;;;0.22;0.22;;;15.60;47.90;;;;;;5067513;28;48084;-18
2022/04/09 05:34:36;;;;;;;0.22;0.22;;;15.60;47.90;;;;;;5067704;28;46971;-14
2022/04/09 05:37:03;;;;;;;0.20;0.20;;;15.60;48.60;;;;;;5067584;28;46943;-13
2022/04/09 05:39:29;;;;;;;0.55;0.30;;;15.50;47.90;;;;;;5067500;28;46889;-18
2022/04/09 05:41:57;;;;;;;0.20;0.20;;;15.50;48.00;;;;;;5067057;28;47015;-13
2022/04/09 05:44:24;;;;;;;0.13;0.13;;;15.50;48.00;;;;;;5067278;28;46879;-18
2022/04/09 05:46:51;;;;;;;0.30;0.30;;;15.50;48.00;;;;;;5066951;28;46880;-14
2022/04/09 05:49:18;;;;;;;0.10;0.10;;;15.50;48.10;;;;;;5066697;28;46887;-14
2022/04/09 05:51:44;;;;;;;0.20;0.20;;;15.50;48.00;;;;;;5066923;28;48135;-18
2022/04/09 05:54:11;;;;;;;0.22;0.22;;;15.50;48.10;;;;;;5067040;28;47382;-18
2022/04/09 05:56:38;;;;;;;0.20;0.20;;;15.50;48.10;;;;;;5067096;28;47017;-18
2022/04/09 05:59:07;;;;;;;0.20;0.20;;;15.50;48.10;;;;;;5067308;28;46958;-18
2022/04/09 06:01:34;;;;;;;0.25;0.20;;;15.50;48.10;;;;;;5066761;28;48811;-13
2022/04/09 06:04:01;;;;;;;0.30;0.30;;;15.40;48.00;;;;;;5067170;28;47038;-18
2022/04/09 06:06:28;;;;;;;0.20;0.20;;;15.50;48.10;;;;;;5066803;28;46839;-18
2022/04/09 06:08:54;;;;;;;0.32;0.20;;;15.40;48.00;;;;;;5067095;28;47212;-13
2022/04/09 06:11:21;;;;;;;0.20;0.20;;;15.50;48.00;;;;;;5067041;28;46877;-18
2022/04/09 06:13:48;;;;;;;0.25;0.25;;;15.40;47.90;;;;;;5067024;28;47055;-18
2022/04/09 06:16:16;;;;;;;0.22;0.22;;;15.40;47.90;;;;;;5066780;28;47044;-19
2022/04/09 06:18:43;;;;;;;0.30;0.30;;;15.50;47.90;;;;;;5067375;28;47116;-15
2022/04/09 06:21:10;;;;;;;1.02;0.40;;;15.40;47.90;;;;;;5066801;28;47965;-13
2022/04/09 06:23:36;;;;;;;0.20;0.20;;;15.50;47.90;;;;;;5066780;28;46911;-14
2022/04/09 06:26:03;;;;;;;0.20;0.20;;;15.50;47.80;;;;;;5066842;28;46855;-18
2022/04/09 06:28:31;;;;;;;0.20;0.20;;;15.50;47.90;;;;;;5066840;28;47363;-14
2022/04/09 06:30:59;;;;;;;0.57;0.20;;;15.50;47.80;;;;;;5066729;28;47842;-13
2022/04/09 06:33:27;;;;;;;0.30;0.30;;;15.50;47.80;;;;;;5066482;28;46942;-16
2022/04/09 06:35:53;;;;;;;0.28;0.28;;;15.50;47.90;;;;;;5066714;28;46999;-14
2022/04/09 06:38:20;;;;;;;0.75;0.30;;;15.50;48.00;;;;;;5066622;28;46800;-13
2022/04/09 06:40:47;;;;;;;0.20;0.20;;;15.50;48.00;;;;;;5066336;28;48125;-13
2022/04/09 06:43:14;;;;;;;0.17;0.10;;;15.60;48.10;;;;;;5066432;28;47055;-18
2022/04/09 06:45:40;;;;;;;0.22;0.22;;;15.60;48.20;;;;;;5066580;28;47102;-14
2022/04/09 06:48:07;;;;;;;0.40;0.40;;;15.60;48.20;;;;;;5066756;28;46902;-13
2022/04/09 06:50:35;;;;;;;0.30;0.30;;;15.70;48.20;;;;;;5066236;28;47542;-13
2022/04/09 06:53:02;;;;;;;0.30;0.30;;;15.70;48.10;;;;;;5066015;28;46863;-15
2022/04/09 06:55:29;;;;;;;0.40;0.38;;;15.70;48.10;;;;;;5066562;28;46838;-13
2022/04/09 06:58:00;;;;;;;0.35;0.30;;;15.80;48.10;;;;;;5066140;28;46867;-18
2022/04/09 07:00:27;;;;;;;0.22;0.22;;;15.80;48.10;;;;;;5065981;28;47327;-18
2022/04/09 07:02:53;;;;;;;0.10;0.10;;;15.90;48.20;;;;;;5065910;28;46864;-14
2022/04/09 07:05:20;;;;;;;0.20;0.20;;;15.90;48.10;;;;;;5066624;28;46818;-15
2022/04/09 07:07:49;;;;;;;0.30;0.30;;;15.90;47.90;;;;;;5066087;28;47001;-18
2022/04/09 07:10:16;;;;;;;0.57;0.30;;;16.00;48.10;;;;;;5066139;28;48297;-18
2022/04/09 07:12:42;;;;;;;0.30;0.30;;;16.00;48.00;;;;;;5065631;28;47413;-18
2022/04/09 07:15:10;;;;;;;0.20;0.20;;;16.10;47.90;;;;;;5065898;28;46901;-18
2022/04/09 07:17:37;;;;;;;0.20;0.20;;;16.10;47.80;;;;;;5065560;28;46914;-18
2022/04/09 07:20:05;;;;;;;0.50;0.22;;;16.20;47.90;;;;;;5065719;28;47856;-14
2022/04/09 07:22:32;;;;;;;0.20;0.20;;;16.20;47.80;;;;;;5065814;28;46998;-18
2022/04/09 07:25:00;;;;;;;0.30;0.30;;;16.20;47.70;;;;;;5065641;28;47007;-18
2022/04/09 07:27:35;;;;;;;0.22;0.22;;;16.30;47.70;;;;;;5065716;28;46939;-19
2022/04/09 07:30:02;;;;;;;0.25;0.25;;;16.30;47.70;;;;;;5065766;28;49261;-13
2022/04/09 07:32:29;;;;;;;0.20;0.20;;;16.30;47.70;;;;;;5065159;28;47370;-13
2022/04/09 07:34:55;;;;;;;0.22;0.22;;;16.30;47.60;;;;;;5065505;28;46809;-18
2022/04/09 07:37:22;;;;;;;0.22;0.22;;;16.40;47.60;;;;;;5065871;28;46878;-18
2022/04/09 07:39:49;;;;;;;2.50;0.40;;;16.40;47.60;;;;;;5065326;28;48127;-17
2022/04/09 07:42:17;;;;;;;0.68;0.30;;;16.40;47.60;;;;;;5065232;28;47430;-13
2022/04/09 07:44:43;;;;;;;0.95;0.30;;;16.40;47.60;;;;;;5065541;28;47087;-13
2022/04/09 07:47:10;;;;;;;0.32;0.30;;;16.40;47.60;;;;;;5065372;28;46886;-13
2022/04/09 07:49:37;;;;;;;0.30;0.30;;;16.40;47.50;;;;;;5065209;28;48815;-13
2022/04/09 07:52:04;;;;;;;0.30;0.30;;;16.50;47.30;;;;;;5065115;28;46970;-18
2022/04/09 07:54:32;;;;;;;1.05;0.35;;;16.50;47.50;;;;;;5065307;28;46808;-18
2022/04/09 07:56:59;;;;;;;1.08;0.50;;;16.50;47.40;;;;;;5065721;28;46886;-13
2022/04/09 07:59:27;;;;;;;0.30;0.30;;;16.60;47.40;;;;;;5065028;28;48624;-13
2022/04/09 08:01:53;;;;;;;0.30;0.30;;;16.60;47.30;;;;;;5065244;28;47217;-16
2022/04/09 08:04:20;;;;;;;0.30;0.30;;;16.60;47.20;;;;;;5065568;28;46819;-18
2022/04/09 08:06:47;;;;;;;0.77;0.40;;;16.60;47.30;;;;;;5065506;28;46918;-13
2022/04/09 08:09:13;;;;;;;0.68;0.40;;;16.70;47.20;;;;;;5064914;28;47904;-15
2022/04/09 08:11:40;;;;;;;0.35;0.35;;;16.70;47.10;;;;;;5064308;28;46887;-13
2022/04/09 08:14:07;;;;;;;0.30;0.30;;;16.70;47.10;;;;;;5065255;28;46901;-18
2022/04/09 08:16:35;;;;;;;0.43;0.40;;;16.70;47.30;;;;;;5065484;28;46972;-18
2022/04/09 08:19:03;;;;;;;0.30;0.30;;;16.80;47.30;;;;;;5064816;28;47855;-14
2022/04/09 08:21:30;;;;;;;0.30;0.30;;;16.80;47.30;;;;;;5064810;28;46963;-16
2022/04/09 08:23:56;;;;;;;0.57;0.50;;;16.80;47.20;;;;;;5065266;28;46979;-18
2022/04/09 08:26:23;;;;;;;0.40;0.40;;;16.80;47.20;;;;;;5064857;28;46946;-14
2022/04/09 08:28:50;;;;;;;0.50;0.50;;;16.80;47.10;;;;;;5064510;28;48813;-15
2022/04/09 08:31:17;;;;;;;0.88;0.68;;;16.80;47.00;;;;;;5064855;28;47050;-13
2022/04/09 08:33:45;;;;;;;0.40;0.40;;;16.80;47.10;;;;;;5064770;28;46939;-18
2022/04/09 08:36:13;;;;;;;0.80;0.50;;;16.90;47.70;;;;;;5064354;28;46938;-14
2022/04/09 08:38:40;;;;;;;0.30;0.30;;;16.90;47.10;;;;;;5063938;28;48820;-18
2022/04/09 08:41:07;;;;;;;0.50;0.40;;;16.90;47.20;;;;;;5064649;28;46980;-18
2022/04/09 08:43:34;;;;;;;0.57;0.50;;;16.90;47.00;;;;;;5064577;28;46746;-14
2022/04/09 08:46:02;;;;;;;0.40;0.40;;;16.90;47.00;;;;;;5064700;28;46917;-14
2022/04/09 08:48:29;;;;;;;1.10;0.50;;;16.90;46.90;;;;;;5064705;28;47098;-18
2022/04/09 08:50:57;;;;;;;0.50;0.50;;;17.00;47.00;;;;;;5069423;28;46954;-19
2022/04/09 08:53:24;;;;;;;0.90;0.63;;;17.00;47.00;;;;;;5064073;28;47147;-19
2022/04/09 08:55:51;;;;;;;0.50;0.50;;;17.00;47.00;;;;;;5063712;28;46881;-20
2022/04/09 08:58:18;;;;;;;0.60;0.50;;;17.00;47.30;;;;;;5062918;28;47019;-14
2022/04/09 09:00:46;;;;;;;0.35;0.35;;;17.10;46.90;;;;;;5063650;28;47309;-19
2022/04/09 09:03:14;;;;;;;0.95;0.40;;;17.10;46.90;;;;;;5064600;28;46832;-14
2022/04/09 09:05:42;;;;;;;0.38;0.38;;;17.10;46.90;;;;;;5064612;28;46890;-14
2022/04/09 09:08:10;;;;;;;0.30;0.30;;;17.10;46.90;;;;;;5064007;28;47902;-14
2022/04/09 09:10:37;;;;;;;1.05;0.43;;;17.10;46.80;;;;;;5064551;28;46978;-15
2022/04/09 09:13:05;;;;;;;0.40;0.40;;;17.10;46.70;;;;;;5064166;28;46950;-19
2022/04/09 09:15:35;;;;;;;0.52;0.50;;;17.20;47.40;;;;;;5064574;28;46898;-19
2022/04/09 09:18:02;;;;;;;0.50;0.50;;;17.20;46.70;;;;;;5063650;28;48794;-19
2022/04/09 09:20:28;;;;;;;0.60;0.60;;;17.20;46.70;;;;;;5064358;28;46776;-15
2022/04/09 09:22:55;;;;;;;2.30;0.50;;;17.20;46.60;;;;;;5064219;28;46884;-14
2022/04/09 09:25:23;;;;;;;0.60;0.55;;;17.30;46.60;;;;;;5067526;28;47048;-14
2022/04/09 09:27:57;;;;;;;0.45;0.45;;;17.30;46.50;;;;;;5067102;28;47953;-19
2022/04/09 09:30:24;;;;;;;0.90;0.60;;;17.40;46.40;;;;;;5066833;28;46910;-19
2022/04/09 09:33:07;;;;;;;0.60;0.60;;;17.40;46.30;;;;;;5067300;28;46866;-14
2022/04/09 09:35:50;;;;;;;0.77;0.45;;;17.40;46.10;;;;;;5067643;28;47012;-19
2022/04/09 09:38:21;;;;;;;0.60;0.60;;;17.50;46.20;;;;;;5066942;28;47115;-19
2022/04/09 09:40:49;;;;;;;0.85;0.47;;;17.50;46.20;;;;;;5067471;28;46913;-15
2022/04/09 09:43:16;;;;;;;0.38;0.38;;;17.50;46.00;;;;;;5067306;28;46989;-19
2022/04/09 09:45:43;;;;;;;1.75;0.52;;;17.50;46.00;;;;;;5067414;28;47159;-19
2022/04/09 09:48:22;;;;;;;0.50;0.50;;;17.50;45.90;;;;;;5067208;28;48961;-15
2022/04/09 09:50:49;;;;;;;0.38;0.38;;;17.50;45.90;;;;;;5067180;28;46787;-20
2022/04/09 09:53:16;;;;;;;2.08;0.40;;;17.40;46.00;;;;;;5066708;28;46815;-19
2022/04/09 09:55:43;;;;;;;2.22;0.68;;;17.50;46.10;;;;;;5067481;28;47076;-19
2022/04/09 09:58:13;;;;;;;0.43;0.40;;;17.40;46.00;;;;;;5066655;28;48230;-16
2022/04/09 10:00:40;;;;;;;0.90;0.40;;;17.50;45.90;;;;;;5067029;28;47137;-19
2022/04/09 10:03:07;;;;;;;0.98;0.50;;;17.50;46.00;;;;;;5066628;28;46888;-19
2022/04/09 10:05:34;;;;;;;0.40;0.40;;;17.50;46.00;;;;;;5067408;28;46945;-14
2022/04/09 10:08:01;;;;;;;1.75;0.60;;;17.50;45.90;;;;;;5060578;28;48948;-14
2022/04/09 10:10:27;;;;;;;0.63;0.60;;;17.60;45.90;;;;;;5049690;28;47068;-19
2022/04/09 10:12:54;;;;;;;6.40;1.02;;;17.60;46.50;;;;;;5053485;28;46961;-19
2022/04/09 10:15:22;;;;;;;13.50;1.85;;;17.60;47.00;;;;;;5064220;28;47158;-20
2022/04/09 10:17:51;;;;;;;15.13;2.05;;;17.70;47.30;;;;;;5046984;28;47949;-19
2022/04/09 10:20:19;;;;;;;10.10;1.17;;;17.80;48.00;;;;;;5060428;28;47275;-15
2022/04/09 10:22:46;;;;;;;11.07;1.48;;;17.90;47.70;;;;;;5044761;28;47314;-17
2022/04/09 10:25:13;;;;;;;14.40;1.48;;;18.00;48.10;;;;;;5049362;28;46906;-19
2022/04/09 10:27:42;;;;;;;17.92;1.48;;;18.10;47.80;;;;;;5061493;28;49193;-17
2022/04/09 10:30:24;;;;;;;8.43;1.60;;;18.10;47.90;;;;;;5082288;28;46986;-17
2022/04/09 10:32:53;;;;;;;10.05;1.55;;;18.30;47.70;;;;;;5050331;28;47196;-16
2022/04/09 10:35:24;;;;;;;7.85;1.48;;;18.30;47.60;;;;;;5051753;28;47097;-16
2022/04/09 10:38:20;;;;;;;23.70;2.10;;;18.40;47.70;;;;;;5063066;28;49026;-17
2022/04/09 10:41:27;;;;;;;16.05;1.80;;;18.40;48.20;;;;;;5053784;28;47269;-18
2022/04/09 10:43:57;;;;;;;19.65;2.03;;;18.50;48.00;;;;;;5044834;28;47002;-16
2022/04/09 10:46:35;;;;;;;10.27;1.55;;;18.60;47.70;;;;;;5053915;28;46958;-14
2022/04/09 10:49:18;;;;;;;14.60;1.58;;;18.60;47.80;;;;;;5056793;28;48295;-15
2022/04/09 10:52:15;;;;;;;13.73;1.92;;;18.70;47.40;;;;;;5055401;28;46924;-21
2022/04/09 10:54:44;;;;;;;7.20;1.45;;;18.80;47.40;;;;;;5045492;28;47026;-15
2022/04/09 10:57:20;;;;;;;7.63;1.42;;;18.90;47.20;;;;;;5045615;28;47015;-15
2022/04/09 10:59:58;;;;;;;13.65;1.50;;;19.00;47.10;;;;;;5062085;28;47875;-25
2022/04/09 11:02:26;;;;;;;9.77;1.48;;;19.10;47.20;;;;;;5062465;28;46907;-22
2022/04/09 11:04:53;;;;;;;18.20;2.13;;;19.10;46.70;;;;;;5063439;28;46969;-16
2022/04/09 11:07:20;;;;;;;9.98;1.60;;;19.20;46.30;;;;;;5061330;28;46808;-20
2022/04/09 11:09:57;;;;;;;6.05;1.83;;;19.30;45.70;;;;;;5051029;28;48975;-23
2022/04/09 11:12:25;;;;;;;8.55;1.45;;;19.30;45.30;;;;;;5053477;28;46866;-22
2022/04/09 11:14:54;;;;;;;11.80;1.60;;;19.40;44.90;;;;;;5071480;28;46864;-24
2022/04/09 11:17:30;;;;;;;12.18;1.30;;;19.50;45.00;;;;;;5048048;28;47087;-22
2022/04/09 11:20:01;;;;;;;9.35;1.50;;;19.50;45.10;;;;;;5052860;28;49025;-28
2022/04/09 11:22:35;;;;;;;12.27;1.42;;;19.60;43.70;;;;;;5053008;28;46956;-15
2022/04/09 11:25:02;;;;;;;9.82;1.52;;;19.70;44.40;;;;;;5056973;28;47099;-14
2022/04/09 11:27:28;;;;;;;11.13;2.08;;;19.80;44.00;;;;;;5056689;28;47309;-14
2022/04/09 11:29:56;;;;;;;3.38;1.25;;;19.90;44.40;;;;;;5077802;28;46895;-24
2022/04/09 11:32:23;;;;;;;4.03;1.23;;;20.10;44.30;;;;;;5058849;28;47121;-12
2022/04/09 11:34:52;;;;;;;7.25;1.65;;;20.20;43.80;;;;;;5048710;28;46868;-22
2022/04/09 11:37:19;;;;;;;16.42;1.70;;;20.30;43.80;;;;;;5048590;28;47286;-21
2022/04/09 11:39:47;;;;;;;6.28;1.10;;;20.40;43.40;;;;;;5048920;28;48023;-21
2022/04/09 11:42:13;;;;;;;12.77;1.88;;;20.60;42.70;;;;;;5052077;28;47423;-21
2022/04/09 11:44:40;;;;;;;13.77;2.35;;;20.70;43.10;;;;;;5048234;28;47029;-22
2022/04/09 11:47:11;;;;;;;16.77;2.03;;;20.80;42.20;;;;;;5052779;28;47400;-14
2022/04/09 11:49:38;;;;;;;5.93;1.42;;;20.90;42.20;;;;;;5069570;28;48208;-20
2022/04/09 11:52:07;;;;;;;6.93;1.52;;;21.00;41.20;;;;;;5051358;28;48870;-21
2022/04/09 11:54:35;;;;;;;15.57;2.08;;;21.00;42.10;;;;;;5043983;28;46825;-22
2022/04/09 11:57:03;;;;;;;24.40;12.77;;;21.10;42.00;;;;;;5045055;28;47468;-16
2022/04/09 11:59:30;;;;;;;20.70;16.98;;;21.30;41.30;;;;;;5063002;28;47951;-16
2022/04/09 12:01:57;;;;;;;14.25;9.10;;;21.30;41.20;;;;;;5045942;28;47622;-15
2022/04/09 12:04:24;;;;;;;8.68;5.38;;;21.40;41.10;;;;;;5050257;28;47003;-16
2022/04/09 12:06:51;;;;;;;8.82;4.18;;;21.40;40.90;;;;;;5051714;28;47045;-17
2022/04/09 12:09:21;;;;;;;15.02;6.50;;;21.50;41.00;;;;;;5064994;28;46907;-16
2022/04/09 12:11:51;;;;;;;14.82;5.43;;;21.60;41.50;;;;;;5058214;28;47081;-16
2022/04/09 12:14:20;;;;;;;4.60;4.10;;;21.60;41.50;;;;;;5051508;28;47093;-15
2022/04/09 12:16:46;;;;;;;5.82;3.30;;;21.70;41.10;;;;;;5046835;28;47196;-13
2022/04/09 12:19:13;;;;;;;9.45;2.92;;;21.80;40.90;;;;;;5063407;28;49036;-17
2022/04/09 12:21:41;;;;;;;20.35;12.57;;;21.90;41.20;;;;;;5073163;28;46913;-13
2022/04/09 12:24:08;;;;;;;23.77;15.63;;;22.00;42.00;;;;;;5064482;28;46858;-14
2022/04/09 12:26:37;;;;;;;24.63;18.00;;;22.00;41.70;;;;;;5065153;28;47156;-13
2022/04/09 12:29:12;;;;;;;22.05;17.10;;;22.00;42.00;;;;;;5053247;28;47068;-25
2022/04/09 12:31:39;;;;;;;23.48;16.13;;;22.10;41.50;;;;;;5056959;28;47031;-25
2022/04/09 12:34:07;;;;;;;31.50;14.63;;;22.20;41.80;;;;;;5073874;28;46772;-28
2022/04/09 12:36:36;;;;;;;18.02;10.43;;;22.10;41.00;;;;;;5060125;28;46918;-25
2022/04/09 12:39:24;;;;;;;22.27;9.82;;;22.10;40.70;;;;;;5056486;28;47944;-25
2022/04/09 12:41:52;;;;;;;17.20;6.78;;;22.20;40.10;;;;;;5058287;28;47067;-24
2022/04/09 12:44:26;;;;;;;10.10;4.97;;;22.20;39.60;;;;;;5063777;28;46912;-14
2022/04/09 12:46:54;;;;;;;7.22;4.10;;;22.30;38.50;;;;;;5053090;28;47092;-14
2022/04/09 12:49:21;;;;;;;8.57;3.85;;;22.30;38.50;;;;;;5049141;28;47173;-15